This is the latest recevied weather packets stored in our database for station/object ON3FV. If no packets are shown the sender has not sent any weather packets the latest 10 day(s).
| Time | Temp. | Humidity | Pressure | Rain* | Wind** | Luminosity | Snow |
|---|---|---|---|---|---|---|---|
| 1777756151 | 15.56° C | 85% | 1011.9 hPa | - | - | - | - |
| 1777754347 | 15.56° C | 85% | 1012 hPa | - | - | - | - |
| 1777752841 | 15.56° C | 85% | 1012 hPa | - | - | - | - |
| 1777751037 | 16.11° C | 85% | 1012 hPa | - | - | - | - |
| 1777750433 | 16.11° C | 85% | 1012.1 hPa | - | - | - | - |
| 1777749832 | 16.11° C | 85% | 1012.1 hPa | - | - | - | - |
| 1777749229 | 16.11° C | 84% | 1012.2 hPa | - | - | - | - |
| 1777748326 | 16.67° C | 83% | 1012.4 hPa | - | - | - | - |
| 1777748025 | 16.67° C | 83% | 1012.4 hPa | - | - | - | - |
| 1777747423 | 16.67° C | 81% | 1012.4 hPa | - | - | - | - |
| 1777747142 | 17.22° C | 79% | 1012.6 hPa | - | - | - | - |
| 1777745316 | 19.44° C | 72% | 1013.4 hPa | - | - | - | - |
| 1777745015 | 19.44° C | 72% | 1013.4 hPa | - | - | - | - |
| 1777743510 | 22.22° C | 65% | 1012.5 hPa | - | - | - | - |
| 1777742628 | 22.78° C | 63% | 1012.2 hPa | - | - | - | - |
| 1777741402 | 22.78° C | 64% | 1012.1 hPa | - | - | - | - |
| 1777740199 | 22.78° C | 63% | 1012.5 hPa | - | - | - | - |
| 1777738392 | 23.33° C | 62% | 1013 hPa | - | - | - | - |
| 1777735082 | 23.89° C | 63% | 1013.8 hPa | - | - | - | - |
| 1777734481 | 23.89° C | 63% | 1014 hPa | - | - | - | - |
| 1777732975 | 23.33° C | 65% | 1014.3 hPa | - | - | - | - |
| 1777730868 | 23.33° C | 67% | 1015.1 hPa | - | - | - | - |
| 1777729965 | 23.33° C | 67% | 1015.1 hPa | - | - | - | - |
| 1777728761 | 23.33° C | 68% | 1015.4 hPa | - | - | - | - |
| 1777728459 | 22.78° C | 68% | 1015.6 hPa | - | - | - | - |
* Rain since midnight (hover to see other rain measurements)
** Current wind speed in m/s (hover to see current wind gust speed)